Time;durP1;ratioP1;P1;durP2;ratioP2;P2;SDS_P1;SDS_P2;PMS_P1;PMS_P2;Temp;Humidity;BMP_temperature;BMP_pressure;BME280_temperature;BME280_humidity;BME280_pressure;Samples;Min_cycle;Max_cycle;Signal;HPM_P1;HPM_P2
2022/09/03 00:01:52;;;;;;;;;7.33;6.00;;;;;26.22;52.52;93317.56;4995559;28;45423;-75
2022/09/03 00:04:34;;;;;;;;;5.00;5.00;;;;;26.22;52.87;91572.38;4996855;28;45383;-75
2022/09/03 00:07:05;;;;;;;;;7.00;7.00;;;;;26.27;53.06;91230.41;4995948;28;45505;-75
2022/09/03 00:09:40;;;;;;;;;6.33;5.33;;;;;26.27;53.16;90532.56;4979603;28;45481;-74
2022/09/03 00:12:08;;;;;;;;;8.67;8.67;;;;;26.29;53.09;91234.31;4979884;28;45390;-75
2022/09/03 00:14:39;;;;;;;;;5.33;5.00;;;;;26.24;53.22;91226.53;4976241;28;45316;-75
2022/09/03 00:17:13;;;;;;;;;5.67;5.67;;;;;26.27;53.16;90533.34;4975627;28;46329;-75
2022/09/03 00:19:59;;;;;;;;;8.00;6.67;;;;;26.23;53.74;89131.94;4975848;28;45698;-75
2022/09/03 00:22:38;;;;;;;;;7.00;5.67;;;;;26.21;53.36;88082.06;4975157;28;45719;-74
2022/09/03 00:25:09;;;;;;;;;6.00;6.00;;;;;26.23;53.24;88783.19;4976050;28;45445;-74
2022/09/03 00:27:38;;;;;;;;;6.00;6.00;;;;;26.21;53.74;87036.25;4975367;28;45457;-75
2022/09/03 00:30:09;;;;;;;;;8.00;6.33;;;;;26.10;53.73;83537.22;4970558;28;45481;-75
2022/09/03 00:33:00;;;;;;;;;5.00;5.00;;;;;26.13;54.07;79712.31;4972878;28;45405;-75
2022/09/03 00:35:31;;;;;;;;;5.00;4.00;;;;;26.00;54.47;76218.75;4976203;28;45716;-75
2022/09/03 00:37:58;;;;;;;;;8.00;6.33;;;;;26.05;54.84;73793.91;4975793;28;46174;-75
2022/09/03 00:40:33;;;;;;;;;6.67;5.67;;;;;26.08;54.27;68590.38;4963037;28;45311;-75
2022/09/03 00:43:17;;;;;;;;;6.33;5.00;;;;;26.09;54.47;70326.41;4975465;28;45594;-75
2022/09/03 00:45:57;;;;;;;;;8.00;6.33;;;;;26.09;54.59;68939.06;4975819;28;45325;-75
2022/09/03 00:48:31;;;;;;;;;5.00;5.00;;;;;26.05;54.85;69628.19;4975437;28;46725;-75
2022/09/03 00:51:02;;;;;;;;;8.33;6.33;;;;;26.07;54.86;66509.03;4974566;28;45426;-75
2022/09/03 00:53:50;;;;;;;;;7.00;6.00;;;;;26.06;55.11;67894.94;4975244;28;45921;-75
2022/09/03 00:56:53;;;;;;;;;5.00;5.00;;;;;26.02;55.46;60959.88;4961095;28;45444;-75
2022/09/03 00:59:48;;;;;;;;;5.67;5.67;;;;;26.08;55.04;66162.91;4994761;28;46476;-75
2022/09/03 01:02:39;;;;;;;;;5.00;4.67;;;;;26.01;54.93;66155.53;4995457;28;45438;-75
2022/09/03 01:05:35;;;;;;;;;6.00;5.00;;;;;26.04;54.85;65118.53;4975986;28;45615;-75
2022/09/03 01:08:24;;;;;;;;;5.00;5.00;;;;;26.00;55.29;58535.25;4976004;28;45493;-75
2022/09/03 01:11:01;;;;;;;;;5.00;4.00;;;;;26.00;55.33;59919.38;4982267;28;46128;-75
2022/09/03 01:13:34;;;;;;;;;1.00;1.00;;;;;26.04;55.59;63040.25;4978883;28;45517;-75
2022/09/03 01:16:21;;;;;;;;;5.67;4.67;;;;;25.99;55.58;64767.00;4977084;28;45880;-75
2022/09/03 01:19:24;;;;;;;;;5.00;5.00;;;;;26.01;55.11;66155.53;4995172;28;45453;-75
2022/09/03 01:22:18;;;;;;;;;5.00;5.00;;;;;25.97;55.78;60262.88;4978185;28;47836;-74
2022/09/03 01:25:09;;;;;;;;;4.33;4.00;;;;;25.95;55.38;55072.78;4977058;28;45437;-75
2022/09/03 01:27:57;;;;;;;;;5.00;5.00;;;;;25.95;55.77;56455.59;4993980;28;45537;-75
2022/09/03 01:30:23;;;;;;;;;5.33;4.00;;;;;25.95;56.00;58184.28;4991012;28;45716;-75
2022/09/03 01:33:08;;;;;;;;;5.00;5.00;;;;;25.92;55.85;55069.44;4982658;28;46432;-75
2022/09/03 01:35:46;;;;;;;;;4.33;4.33;;;;;25.91;55.53;55068.97;4975132;28;45381;-75
2022/09/03 01:38:19;;;;;;;;;5.00;3.33;;;;;25.89;56.15;50576.72;4972804;28;45486;-75
2022/09/03 01:44:16;;;;;;;;;3.33;3.33;;;;;25.87;56.22;46089.88;4974775;28;45854;-75
2022/09/03 01:46:45;;;;;;;;;4.00;4.00;;;;;25.82;56.26;48500.03;4974981;28;45373;-75
2022/09/03 01:49:19;;;;;;;;;4.67;3.67;;;;;25.85;55.91;47467.69;4973421;28;45398;-75
2022/09/03 01:51:45;;;;;;;;;4.67;4.67;;;;;25.74;56.46;46768.91;4974693;28;45529;-74
2022/09/03 01:54:16;;;;;;;;;4.00;4.00;;;;;25.86;56.44;48503.88;4974822;28;45493;-75
2022/09/03 01:57:03;;;;;;;;;4.00;4.00;;;;;25.88;56.60;47815.16;4974810;28;45432;-75
2022/09/03 01:59:54;;;;;;;;;4.33;4.33;;;;;25.89;55.78;47471.03;4974333;28;45344;-75
2022/09/03 02:02:22;;;;;;;;;5.00;5.00;;;;;25.86;56.39;48848.91;4953115;28;45321;-75
2022/09/03 02:05:08;;;;;;;;;5.67;5.67;;;;;25.84;56.34;45053.19;4971436;28;47528;-75
2022/09/03 02:07:40;;;;;;;;;4.33;4.33;;;;;25.84;56.39;47466.88;4974263;28;45363;-75
2022/09/03 02:10:10;;;;;;;;;6.33;5.67;;;;;25.86;56.73;47813.47;4974148;28;45470;-75
2022/09/03 02:12:39;;;;;;;;;7.33;5.00;;;;;25.85;55.93;48503.03;4974674;28;45422;-74
2022/09/03 02:15:12;;;;;;;;;7.00;5.33;;;;;25.75;56.35;48839.50;4989394;28;47510;-74
2022/09/03 02:17:41;;;;;;;;;6.67;6.00;;;;;25.79;56.61;48152.97;4974395;28;45501;-75
2022/09/03 02:20:10;;;;;;;;;5.33;4.33;;;;;25.68;56.91;44351.78;4974233;28;45506;-75
2022/09/03 02:22:38;;;;;;;;;5.33;5.33;;;;;25.58;56.61;43310.63;4974577;28;45333;-74
2022/09/03 02:25:04;;;;;;;;;4.00;4.00;;;;;25.56;56.98;43309.09;4973929;28;45428;-75
2022/09/03 02:27:30;;;;;;;;;5.33;4.67;;;;;25.55;57.43;43308.72;4973065;28;45504;-74
2022/09/03 02:29:57;;;;;;;;;6.00;4.33;;;;;25.43;57.40;44677.13;4969106;28;45312;-75
2022/09/03 02:32:22;;;;;;;;;6.33;6.33;;;;;25.51;58.16;46061.19;4969824;28;45342;-75
2022/09/03 02:34:48;;;;;;;;;4.00;4.00;;;;;25.40;58.58;46397.28;4969879;28;45331;-75
2022/09/03 02:37:15;;;;;;;;;4.00;4.00;;;;;25.31;58.46;49492.41;4974135;28;45372;-75
2022/09/03 02:39:41;;;;;;;;;7.00;5.00;;;;;25.46;58.24;50194.75;4974214;28;45405;-75
2022/09/03 02:42:09;;;;;;;;;5.67;4.00;;;;;25.30;58.08;50525.63;4973878;28;45408;-75
2022/09/03 02:44:38;;;;;;;;;4.67;4.33;;;;;25.34;58.19;51219.03;4974201;28;46338;-75
2022/09/03 02:47:06;;;;;;;;;4.00;4.00;;;;;25.42;58.03;51916.25;4974007;28;45326;-75
2022/09/03 02:49:32;;;;;;;;;5.00;5.00;;;;;25.41;58.16;53641.06;4974563;28;45344;-75
2022/09/03 02:52:11;;;;;;;;;5.00;5.00;;;;;25.46;58.15;54336.28;4977205;28;45258;-75
2022/09/03 02:54:40;;;;;;;;;4.33;4.33;;;;;25.41;58.09;55022.16;4976622;28;46397;-75
2022/09/03 02:57:08;;;;;;;;;6.00;4.67;;;;;25.42;58.38;55368.97;4976436;28;45358;-75
2022/09/03 02:59:34;;;;;;;;;5.00;5.00;;;;;25.43;58.39;56060.75;4977057;28;45384;-75
2022/09/03 03:02:00;;;;;;;;;4.33;4.33;;;;;25.36;58.95;56744.34;4973493;28;45475;-75
2022/09/03 03:04:26;;;;;;;;;7.00;6.00;;;;;25.44;58.79;57443.25;4971810;28;46303;-75
2022/09/03 03:06:51;;;;;;;;;5.67;5.00;;;;;25.40;58.97;57439.78;4976637;28;45373;-75
2022/09/03 03:09:17;;;;;;;;;5.00;5.00;;;;;25.47;58.50;58137.47;4976837;28;45549;-75
2022/09/03 03:11:43;;;;;;;;;4.33;4.33;;;;;25.42;58.97;58132.94;4975594;28;46313;-75
2022/09/03 03:14:08;;;;;;;;;5.33;5.33;;;;;25.47;58.61;58483.13;4976305;28;45396;-75
2022/09/03 03:16:34;;;;;;;;;5.00;5.00;;;;;25.50;58.42;58831.88;4976884;28;45442;-76
2022/09/03 03:18:59;;;;;;;;;5.33;5.33;;;;;25.52;58.56;59179.66;4976905;28;45411;-75
2022/09/03 03:21:24;;;;;;;;;4.00;4.00;;;;;25.46;58.48;59519.78;4976781;28;45462;-75
2022/09/03 03:23:50;;;;;;;;;7.67;5.67;;;;;25.49;58.60;60213.94;4976332;28;46180;-75
2022/09/03 03:26:20;;;;;;;;;6.00;5.00;;;;;25.46;58.63;59865.53;4976369;28;45389;-75
2022/09/03 03:28:47;;;;;;;;;6.00;6.00;;;;;25.46;59.16;60210.84;4971515;28;45536;-75
2022/09/03 03:31:15;;;;;;;;;6.00;5.00;;;;;25.41;58.72;60897.28;4975082;28;45378;-75
2022/09/03 03:33:41;;;;;;;;;5.33;5.00;;;;;25.22;59.30;61569.91;4975982;28;45484;-75
2022/09/03 03:36:10;;;;;;;;;6.33;5.33;;;;;25.13;59.95;63289.50;4976236;28;45482;-74
2022/09/03 03:38:36;;;;;;;;;5.00;5.00;;;;;25.25;59.50;63648.03;4975244;28;45513;-75
2022/09/03 03:41:18;;;;;;;;;6.00;6.00;;;;;25.23;60.28;64683.97;4976733;28;45333;-75
2022/09/03 03:43:44;;;;;;;;;5.33;5.33;;;;;25.20;60.39;65719.50;4972532;28;46120;-75
2022/09/03 03:46:10;;;;;;;;;4.00;4.00;;;;;25.31;59.98;66423.88;4970064;28;45384;-75
2022/09/03 03:48:37;;;;;;;;;7.00;6.00;;;;;25.32;59.92;67117.06;4973074;28;45315;-75
2022/09/03 03:51:05;;;;;;;;;5.33;5.00;;;;;25.26;59.90;66072.50;4974228;28;45447;-75
2022/09/03 03:53:31;;;;;;;;;5.33;5.33;;;;;25.23;59.85;65722.91;4974762;28;45416;-76
2022/09/03 03:56:00;;;;;;;;;7.67;6.00;;;;;25.25;59.80;64686.19;4974115;28;45413;-75
2022/09/03 03:58:27;;;;;;;;;5.00;5.00;;;;;25.32;59.70;64001.22;4972415;28;45389;-75
2022/09/03 04:00:53;;;;;;;;;6.00;4.67;;;;;25.32;59.74;63655.19;4974073;28;45368;-75
2022/09/03 04:03:19;;;;;;;;;6.00;6.00;;;;;25.12;60.31;62596.66;4973834;28;46095;-75
2022/09/03 04:05:58;;;;;;;;;6.00;6.00;;;;;25.16;60.83;61563.50;4973296;28;45929;-75
2022/09/03 04:08:23;;;;;;;;;8.00;6.00;;;;;25.15;60.54;62253.53;4974819;28;45391;-75
2022/09/03 04:10:49;;;;;;;;;8.67;6.00;;;;;25.20;60.74;61913.06;4973130;28;45471;-75
2022/09/03 04:13:14;;;;;;;;;4.33;4.33;;;;;25.23;60.75;62262.66;4973855;28;47208;-75
2022/09/03 04:15:41;;;;;;;;;9.00;6.67;;;;;25.21;60.56;60876.78;4974623;28;45353;-75
2022/09/03 04:18:07;;;;;;;;;7.33;6.67;;;;;25.24;60.35;60534.19;4966463;28;45420;-75
2022/09/03 04:20:32;;;;;;;;;7.67;6.00;;;;;25.19;60.86;60183.28;4975478;28;45485;-74
2022/09/03 04:23:01;;;;;;;;;4.00;4.00;;;;;25.20;60.40;59493.03;4971229;28;47374;-75
2022/09/03 04:25:27;;;;;;;;;8.00;6.00;;;;;25.22;60.64;59495.09;4963917;28;45392;-75
2022/09/03 04:27:52;;;;;;;;;6.33;6.33;;;;;25.20;60.75;59147.94;4975023;28;45402;-74
2022/09/03 04:30:18;;;;;;;;;6.00;6.00;;;;;25.16;61.10;58798.28;4970219;28;45516;-75
2022/09/03 04:32:53;;;;;;;;;5.67;5.67;;;;;25.16;61.26;58798.28;4974651;28;45413;-75
2022/09/03 04:35:20;;;;;;;;;7.67;6.33;;;;;25.20;61.49;58801.88;4973750;28;45406;-75
2022/09/03 04:37:46;;;;;;;;;7.33;7.33;;;;;25.14;60.83;58450.75;4973748;28;45407;-75
2022/09/03 04:40:12;;;;;;;;;6.00;6.00;;;;;25.10;61.55;58792.19;4975420;28;45567;-75
2022/09/03 04:42:37;;;;;;;;;9.00;6.00;;;;;25.12;61.01;57757.31;4963510;28;45518;-75
2022/09/03 04:45:03;;;;;;;;;7.00;5.33;;;;;25.09;61.07;58099.75;4976543;28;45907;-75
2022/09/03 04:47:28;;;;;;;;;6.00;6.00;;;;;25.10;61.43;57410.44;4974205;28;45263;-75
2022/09/03 04:49:54;;;;;;;;;6.67;6.67;;;;;25.11;61.44;57066.06;4974510;28;45390;-75
2022/09/03 04:52:19;;;;;;;;;8.00;5.33;;;;;25.10;61.44;57755.31;4972151;28;46024;-75
2022/09/03 04:54:45;;;;;;;;;7.00;7.00;;;;;25.09;61.60;57064.06;4973494;28;45365;-75
2022/09/03 04:57:10;;;;;;;;;7.00;6.33;;;;;25.03;61.51;56367.59;4973899;28;45389;-75
2022/09/03 04:59:35;;;;;;;;;7.67;7.00;;;;;25.02;61.77;56712.34;4975663;28;45459;-75
2022/09/03 05:02:01;;;;;;;;;6.00;6.00;;;;;25.06;61.46;55680.06;4973589;28;46370;-75
2022/09/03 05:04:27;;;;;;;;;8.00;7.00;;;;;25.04;61.97;56023.81;4973230;28;45887;-75
2022/09/03 05:06:52;;;;;;;;;6.00;4.67;;;;;25.02;61.98;54985.88;4973131;28;45368;-75
2022/09/03 05:09:18;;;;;;;;;6.33;6.33;;;;;24.97;61.82;54636.03;4974023;28;45393;-75
2022/09/03 05:11:43;;;;;;;;;7.33;6.00;;;;;24.94;61.66;55323.34;4987829;28;46233;-75
2022/09/03 05:14:11;;;;;;;;;7.33;6.00;;;;;24.88;61.99;54973.00;4972986;28;45551;-75
2022/09/03 05:16:37;;;;;;;;;7.67;7.67;;;;;24.87;61.84;54627.03;4975001;28;45783;-75
2022/09/03 05:19:04;;;;;;;;;7.00;6.00;;;;;24.92;62.53;54631.28;4974500;28;45522;-75
2022/09/03 05:21:30;;;;;;;;;7.67;7.33;;;;;24.91;62.10;54285.81;4974327;28;47284;-75
2022/09/03 05:23:58;;;;;;;;;10.00;7.00;;;;;24.89;61.83;53938.94;4975194;28;45814;-75
2022/09/03 05:26:33;;;;;;;;;9.00;7.67;;;;;24.88;62.08;52903.25;4974414;28;45545;-75
2022/09/03 05:29:06;;;;;;;;;9.33;8.00;;;;;24.98;61.58;52912.00;4977899;28;45496;-75
2022/09/03 05:31:33;;;;;;;;;7.33;7.33;;;;;24.94;61.85;52908.78;4972032;28;46729;-75
2022/09/03 05:34:01;;;;;;;;;12.67;6.33;;;;;25.05;62.23;52918.44;4967652;28;45456;-74
2022/09/03 05:36:29;;;;;;;;;7.00;6.67;;;;;25.01;61.65;52225.41;4973817;28;45315;-74
2022/09/03 05:38:55;;;;;;;;;8.00;7.67;;;;;24.99;62.00;51533.47;4975056;28;45255;-75
2022/09/03 05:41:21;;;;;;;;;7.67;7.67;;;;;25.02;61.64;50847.00;4967427;28;46864;-75
2022/09/03 05:43:54;;;;;;;;;5.00;5.00;;;;;25.01;62.03;50500.94;4971130;28;45502;-75
2022/09/03 05:46:25;;;;;;;;;8.00;7.00;;;;;24.91;61.62;50147.94;4960926;28;45773;-75
2022/09/03 05:48:50;;;;;;;;;9.50;7.00;;;;;25.10;61.79;50508.88;4968154;28;45447;-75
2022/09/03 05:51:17;;;;;;;;;8.33;7.33;;;;;25.11;61.80;50164.97;4970184;28;46146;-75
2022/09/03 05:53:45;;;;;;;;;9.00;7.33;;;;;25.06;61.53;49126.56;4971529;28;45459;-74
2022/09/03 05:56:16;;;;;;;;;9.67;6.00;;;;;25.11;61.56;48786.22;4989733;28;45887;-75
2022/09/03 05:58:44;;;;;;;;;6.67;6.67;;;;;25.05;61.45;48436.50;4962709;28;45546;-76
2022/09/03 06:01:14;;;;;;;;;7.00;7.00;;;;;25.12;61.05;48442.00;4964865;28;46382;-76
2022/09/03 06:03:41;;;;;;;;;8.00;7.00;;;;;25.00;61.66;47398.78;4973054;28;45408;-75
2022/09/03 06:06:07;;;;;;;;;6.00;5.67;;;;;25.16;61.26;47067.13;4971406;28;45605;-75
2022/09/03 06:08:33;;;;;;;;;6.67;6.00;;;;;25.01;61.03;46366.38;4973610;28;45305;-74
2022/09/03 06:11:02;;;;;;;;;7.00;7.00;;;;;25.04;61.73;46024.47;4973369;28;46170;-74
2022/09/03 06:13:29;;;;;;;;;8.33;6.67;;;;;25.05;61.44;46369.63;4967924;28;45516;-75
2022/09/03 06:15:59;;;;;;;;;6.00;6.00;;;;;25.15;61.32;46722.22;4973673;28;45320;-75
2022/09/03 06:18:26;;;;;;;;;8.00;8.00;;;;;25.22;61.18;46383.47;4972215;28;45562;-75
2022/09/03 06:20:56;;;;;;;;;7.00;6.00;;;;;25.24;60.90;46040.63;4973410;28;46334;-75
2022/09/03 06:23:22;;;;;;;;;7.67;6.67;;;;;25.24;60.89;46385.09;4968113;28;45449;-75
2022/09/03 06:25:47;;;;;;;;;9.33;7.67;;;;;25.20;61.25;45692.56;4970398;28;45414;-74
2022/09/03 06:28:12;;;;;;;;;8.33;7.00;;;;;25.24;61.17;45006.97;4969883;28;45395;-75
2022/09/03 06:30:37;;;;;;;;;7.33;7.33;;;;;25.18;61.23;43625.47;4958321;28;47159;-74
2022/09/03 06:33:03;;;;;;;;;7.00;7.00;;;;;25.03;61.25;42926.13;4966740;28;45533;-74
2022/09/03 06:35:28;;;;;;;;;7.67;7.67;;;;;25.12;60.98;42932.16;4960954;28;45395;-74
2022/09/03 06:37:53;;;;;;;;;6.00;6.00;;;;;25.02;61.58;42236.91;4972518;28;45438;-76
2022/09/03 06:40:21;;;;;;;;;8.00;6.33;;;;;25.10;61.14;41898.81;4973667;28;48450;-82
2022/09/03 06:43:02;;;;;;;;;7.67;7.67;;;;;25.09;60.95;41553.72;4971476;28;45258;-75
2022/09/03 06:45:28;;;;;;;;;9.67;7.00;;;;;25.04;61.47;41206.47;4955983;28;45472;-75
2022/09/03 06:47:54;;;;;;;;;8.67;7.00;;;;;25.08;61.31;41209.00;4962733;28;45424;-76
2022/09/03 06:50:19;;;;;;;;;5.33;5.00;;;;;25.01;61.43;40860.75;4968361;28;45722;-75
2022/09/03 06:52:50;;;;;;;;;8.67;7.67;;;;;25.09;61.18;40522.25;4961455;28;45471;-76
2022/09/03 06:55:15;;;;;;;;;10.00;7.00;;;;;25.18;61.33;41560.31;4965905;28;45571;-76
2022/09/03 06:57:41;;;;;;;;;8.67;6.67;;;;;25.14;61.21;42245.47;4978416;28;45741;-77
2022/09/03 07:00:07;;;;;;;;;7.33;7.33;;;;;25.24;60.74;41564.75;4975550;28;46186;-77
2022/09/03 07:02:32;;;;;;;;;7.00;6.00;;;;;25.23;60.56;41220.31;4961864;28;45716;-77
2022/09/03 07:04:57;;;;;;;;;7.67;6.33;;;;;25.38;60.59;42951.84;4971474;28;46027;-77
2022/09/03 07:07:23;;;;;;;;;8.00;7.00;;;;;25.33;60.59;43292.31;5034294;28;45418;-77
2022/09/03 07:09:49;;;;;;;;;7.33;6.67;;;;;25.40;60.69;42952.97;4985761;28;46427;-79
2022/09/03 07:12:17;;;;;;;;;3.67;3.67;;;;;25.25;60.50;42597.84;4988179;28;45476;-79
2022/09/03 07:14:42;;;;;;;;;8.00;8.00;;;;;25.31;60.11;43634.69;4967118;28;45545;-77
2022/09/03 07:17:07;;;;;;;;;11.00;8.00;;;;;25.47;59.96;45024.72;4990689;28;45385;-78
2022/09/03 07:19:32;;;;;;;;;8.00;8.00;;;;;25.52;60.32;43994.84;4966083;28;55358;-78
2022/09/03 07:21:58;;;;;;;;;9.33;7.67;;;;;25.42;60.01;45365.66;4969714;28;49013;-77
2022/09/03 07:24:24;;;;;;;;;10.67;10.67;;;;;25.53;60.49;44340.47;5003263;28;45497;-77
2022/09/03 07:26:49;;;;;;;;;9.00;7.67;;;;;25.57;59.49;50894.03;5005288;28;45487;-78
2022/09/03 07:29:18;;;;;;;;;7.00;7.00;;;;;25.45;59.44;48124.78;4994571;28;45523;-78
2022/09/03 07:31:44;;;;;;;;;7.67;7.67;;;;;25.68;58.42;64733.53;4987537;28;45581;-78
2022/09/03 07:34:11;;;;;;;;;7.33;7.33;;;;;25.66;58.85;63345.69;5008562;28;45404;-78
2022/09/03 07:36:45;;;;;;;;;7.67;7.67;;;;;25.75;58.77;61970.22;4962214;28;45495;-78
2022/09/03 07:39:12;;;;;;;;;8.00;6.00;;;;;25.77;58.45;66128.78;5034457;28;47021;-77
2022/09/03 07:41:42;;;;;;;;;9.67;8.00;;;;;25.73;58.68;75142.28;5029573;28;45560;-78
2022/09/03 07:44:07;;;;;;;;;5.00;5.00;;;;;25.76;58.27;70981.56;5030416;28;45395;-78
2022/09/03 07:46:36;;;;;;;;;6.00;5.00;;;;;25.80;57.50;97091.09;4969754;28;45412;-78
2022/09/03 07:49:02;;;;;;;;;8.33;7.33;;;;;25.89;58.00;94312.91;4973136;28;47193;-78
2022/09/03 07:51:30;;;;;;;;;8.67;8.00;;;;;25.88;57.97;96755.91;5005395;28;45438;-78
2022/09/03 07:53:58;;;;;;;;;5.67;5.00;;;;;25.95;58.28;99560.78;5019833;28;45471;-78
2022/09/03 07:56:25;;;;;;;;;7.00;5.00;;;;;25.98;57.61;101663.44;5019452;28;45503;-78
2022/09/03 07:58:51;;;;;;;;;9.00;6.67;;;;;26.14;58.03;88769.59;4974820;28;46373;-78
2022/09/03 08:01:18;;;;;;;;;8.67;6.67;;;;;26.24;57.58;114322.22;4968415;28;46137;-78
2022/09/03 08:03:46;;;;;;;;;10.33;7.67;;;;;26.21;57.46;129432.50;4971455;28;45479;-78
2022/09/03 08:06:14;;;;;;;;;6.67;6.00;;;;;26.31;56.76;130158.94;4973578;28;45501;-78
2022/09/03 08:08:40;;;;;;;;;8.67;7.00;;;;;26.44;56.79;134771.34;4972426;28;46311;-78
2022/09/03 08:11:10;;;;;;;;;6.33;6.00;;;;;26.63;56.29;138342.88;4967650;28;45340;-77
2022/09/03 08:13:47;;;;;;;;;8.00;8.00;;;;;26.63;55.80;140816.03;4985402;28;45439;-75
2022/09/03 08:16:15;;;;;;;;;6.33;6.33;;;;;26.69;55.73;141538.44;4966770;28;45510;-76
2022/09/03 08:18:41;;;;;;;;;6.00;6.00;;;;;26.72;56.02;142252.72;4980107;28;47168;-76
2022/09/03 08:21:14;;;;;;;;;8.00;7.00;;;;;26.77;55.80;143324.53;4974562;28;45371;-77
2022/09/03 08:23:48;;;;;;;;;2.67;2.67;;;;;26.79;55.35;144036.88;4970236;28;46923;-77
2022/09/03 08:26:15;;;;;;;;;6.33;6.33;;;;;26.80;55.02;144746.91;4962571;28;45448;-77
2022/09/03 08:28:42;;;;;;;;;5.33;4.00;;;;;26.94;54.85;145135.03;4969765;28;46304;-77
2022/09/03 08:31:19;;;;;;;;;7.00;5.33;;;;;27.52;54.42;145980.84;4970619;28;45586;-76
2022/09/03 08:33:47;;;;;;;;;5.33;5.00;;;;;28.04;52.55;136895.53;4966118;28;45396;-76
2022/09/03 08:36:17;;;;;;;;;6.00;4.00;;;;;28.18;52.05;135158.47;4967314;28;45473;-76
2022/09/03 08:38:45;;;;;;;;;6.33;4.33;;;;;28.26;51.69;137298.00;4970122;28;46392;-77
2022/09/03 08:41:10;;;;;;;;;7.00;5.00;;;;;28.65;50.62;114071.84;4963696;28;45472;-78
2022/09/03 08:44:05;;;;;;;;;6.00;4.00;;;;;29.36;50.06;86330.22;4965069;28;45502;-76
2022/09/03 08:46:47;;;;;;;;;3.33;3.00;;;;;29.26;48.74;54496.94;4965136;28;45529;-76
2022/09/03 08:49:19;;;;;;;;;4.00;4.00;;;;;29.25;48.83;51626.09;4964503;28;45532;-76
2022/09/03 08:51:47;;;;;;;;;4.00;4.00;;;;;29.43;48.09;33823.53;4987227;28;45893;-76
2022/09/03 08:54:14;;;;;;;;;4.67;3.33;;;;;29.65;48.18;27331.03;4965014;28;46382;-73
2022/09/03 08:56:41;;;;;;;;;4.00;4.00;;;;;29.69;47.42;18840.75;4967158;28;45583;-76
2022/09/03 08:59:08;;;;;;;;;3.33;3.33;;;;;30.73;46.26;-10783.03;4962882;28;48354;-76
2022/09/03 09:02:05;;;;;;;;;4.75;4.25;;;;;30.63;45.53;-10097.16;4966082;28;45611;-76
2022/09/03 09:04:46;;;;;;;;;3.25;3.25;;;;;30.61;45.37;-9412.06;4970107;28;45488;-77
2022/09/03 09:07:42;;;;;;;;;4.50;3.25;;;;;31.06;45.23;-10444.13;4970472;28;45494;-76
2022/09/03 09:10:31;;;;;;;;;2.00;2.00;;;;;31.77;43.63;-10451.69;4969392;28;46543;-76
2022/09/03 09:13:28;;;;;;;;;2.50;2.00;;;;;33.11;41.70;-8402.94;4961655;28;45456;-76
2022/09/03 09:16:06;;;;;;;;;3.50;3.25;;;;;34.12;38.96;-4964.25;4958292;28;45386;-76
2022/09/03 09:18:53;;;;;;;;;2.00;2.00;;;;;33.55;39.43;-2551.22;4972203;28;45479;-76
2022/09/03 09:21:36;;;;;;;;;3.00;3.00;;;;;33.08;39.71;-1863.19;4973627;28;46356;-76
2022/09/03 09:24:07;;;;;;;;;2.00;2.00;;;;;33.13;39.84;-2207.53;4961080;28;45488;-76
2022/09/03 09:26:32;;;;;;;;;2.00;1.50;;;;;32.75;39.55;546.75;4973428;28;45403;-76
2022/09/03 09:29:07;;;;;;;;;4.25;2.00;;;;;32.37;39.73;1232.91;4979438;28;45446;-76
2022/09/03 09:31:34;;;;;;;;;2.25;2.25;;;;;32.11;41.06;-1522.03;4965173;28;46176;-77
2022/09/03 09:34:07;;;;;;;;;2.25;2.25;;;;;31.68;41.36;-835.91;4964994;28;45401;-76
2022/09/03 09:36:52;;;;;;;;;2.00;2.00;;;;;31.15;42.52;-2212.16;4971344;28;45533;-76
2022/09/03 09:39:17;;;;;;;;;2.67;2.33;;;;;30.71;43.52;-3242.53;4972885;28;45577;-76
2022/09/03 09:41:56;;;;;;;;;2.33;2.00;;;;;30.62;44.15;-4271.53;4968896;28;45545;-76
2022/09/03 09:44:25;;;;;;;;;3.00;3.00;;;;;31.51;42.35;-4272.38;4970994;28;47024;-76
2022/09/03 09:46:50;;;;;;;;;2.67;2.67;;;;;32.61;41.36;-4273.38;4982743;28;45344;-76
2022/09/03 09:49:42;;;;;;;;;1.75;1.75;;;;;33.62;38.92;-827.13;4983310;28;45645;-76
2022/09/03 09:52:11;;;;;;;;;2.67;1.67;;;;;34.40;36.79;2976.41;4971710;28;45943;-75
2022/09/03 09:54:38;;;;;;;;;2.00;2.00;;;;;35.07;36.75;1253.94;4971591;28;45551;-75
2022/09/03 09:57:07;;;;;;;;;2.00;2.00;;;;;35.45;36.23;3680.03;4973412;28;45526;-76
2022/09/03 09:59:34;;;;;;;;;2.00;2.00;;;;;35.42;35.32;6104.09;4969736;28;45457;-75
2022/09/03 10:02:09;;;;;;;;;1.75;1.75;;;;;35.30;36.33;5755.91;4970184;28;45376;-76
2022/09/03 10:04:35;;;;;;;;;3.00;3.00;;;;;34.89;36.89;6442.06;4972647;28;45360;-77
2022/09/03 10:07:45;;;;;;;;;1.00;1.00;;;;;34.45;37.28;6435.00;4971035;28;45690;-76
2022/09/03 10:10:19;;;;;;;;;2.00;2.00;;;;;34.55;37.84;4706.94;5021566;28;45606;-76
2022/09/03 10:12:58;;;;;;;;;2.25;2.25;;;;;34.27;36.97;9200.06;5022623;28;47469;-77
2022/09/03 10:15:58;;;;;;;;;2.50;2.50;;;;;33.70;36.94;9534.25;5031242;28;45440;-76
2022/09/03 10:18:38;;;;;;;;;2.25;2.25;;;;;33.87;36.91;10229.66;4936077;28;45394;-76
2022/09/03 10:21:14;;;;;;;;;2.00;2.00;;;;;33.88;37.09;9537.97;4936038;28;45497;-76
2022/09/03 10:23:58;;;;;;;;;2.00;2.00;;;;;34.41;37.04;6780.41;4935787;28;47303;-76
2022/09/03 10:26:31;;;;;;;;;1.25;1.25;;;;;35.03;36.61;8176.03;4935976;28;45433;-76
2022/09/03 10:29:01;;;;;;;;;2.50;2.00;;;;;35.24;35.08;12687.69;4924497;28;45505;-77
2022/09/03 10:31:38;;;;;;;;;1.25;1.25;;;;;35.50;35.57;10612.44;4919766;28;45572;-77
2022/09/03 10:34:36;;;;;;;;;4.00;2.00;;;;;35.81;33.67;13744.25;4932208;28;46225;-85
2022/09/03 10:37:32;;;;;;;;;2.00;1.50;;;;;36.18;34.47;12711.88;4933475;28;45572;-83
2022/09/03 10:40:33;;;;;;;;;1.67;1.33;;;;;36.73;33.64;11683.16;4937921;28;45569;-83
2022/09/03 10:43:36;;;;;;;;;3.00;3.00;;;;;37.70;32.64;11706.53;4892134;29;46546;-88
2022/09/03 10:46:05;;;;;;;;;1.00;1.00;;;;;37.93;31.64;17638.25;4894249;29;46196;-83
2022/09/03 10:48:45;;;;;;;;;2.33;2.33;;;;;38.03;31.90;19037.22;4894686;29;45626;-83
2022/09/03 10:51:47;;;;;;;;;2.33;1.67;;;;;37.50;32.25;20413.56;4876220;29;45419;-81
2022/09/03 10:54:39;;;;;;;;;1.00;0.00;;;;;37.70;31.51;23213.94;4936287;28;45569;-80
2022/09/03 10:57:42;;;;;;;;;1.33;1.33;;;;;37.85;31.93;22521.88;4971812;28;45415;-80
2022/09/03 11:00:14;;;;;;;;;2.33;2.33;;;;;37.27;31.43;27740.94;4964904;28;45314;-82
2022/09/03 11:03:11;;;;;;;;;4.00;3.00;;;;;36.51;32.10;29699.75;4966877;28;46526;-81
2022/09/03 11:05:47;;;;;;;;;1.33;1.33;;;;;36.32;32.56;28618.22;4958450;28;45304;-82
2022/09/03 11:08:22;;;;;;;;;2.00;1.00;;;;;35.97;33.51;27951.59;4969853;28;46558;-81
2022/09/03 11:10:56;;;;;;;;;2.00;2.00;;;;;35.87;33.47;29439.97;4972784;28;45363;-80
2022/09/03 11:13:34;;;;;;;;;2.50;2.00;;;;;35.79;32.99;30890.88;4971144;28;45716;-80
2022/09/03 11:16:05;;;;;;;;;3.00;3.00;;;;;35.69;33.12;29296.88;4971427;28;45572;-80
2022/09/03 11:18:37;;;;;;;;;1.50;1.50;;;;;36.01;32.85;28653.88;4965581;28;46419;-79
2022/09/03 11:21:09;;;;;;;;;1.25;1.25;;;;;36.13;32.36;31165.91;4974970;28;45422;-78
2022/09/03 11:23:40;;;;;;;;;4.00;2.00;;;;;36.50;32.81;29794.41;4964634;28;45620;-79
2022/09/03 11:26:12;;;;;;;;;3.25;3.00;;;;;36.70;31.47;31903.84;4967830;28;45492;-79
2022/09/03 11:28:54;;;;;;;;;3.00;3.00;;;;;36.73;31.88;33058.22;4959516;28;45482;-79
2022/09/03 11:31:58;;;;;;;;;3.00;3.00;;;;;36.68;31.39;33224.28;4985818;28;45622;-78
2022/09/03 11:34:26;;;;;;;;;6.67;2.67;;;;;36.65;32.29;32668.19;4990988;28;45819;-75
2022/09/03 11:37:04;;;;;;;;;3.33;3.33;;;;;36.94;31.13;32646.91;4994090;28;45860;-74
2022/09/03 11:39:38;;;;;;;;;3.50;2.00;;;;;37.08;30.51;34447.63;4992854;28;45524;-76
2022/09/03 11:42:32;;;;;;;;;4.67;4.00;;;;;37.13;31.18;33685.31;4992252;28;45450;-80
2022/09/03 11:45:36;;;;;;;;;19.33;18.67;;;;;36.93;32.83;28853.63;4990781;28;45755;-77
2022/09/03 11:48:16;;;;;;;;;5.00;5.00;;;;;37.11;31.52;32336.91;4996201;28;46780;-75
2022/09/03 11:50:51;;;;;;;;;2.00;2.00;;;;;37.54;30.36;34138.50;4991382;28;47005;-76
2022/09/03 11:53:23;;;;;;;;;4.00;3.00;;;;;37.62;30.57;33891.41;4976533;28;45542;-74
2022/09/03 11:56:01;;;;;;;;;2.33;2.33;;;;;37.47;30.99;36087.50;4995722;28;45448;-74
2022/09/03 11:58:33;;;;;;;;;4.33;3.33;;;;;37.69;29.57;39532.56;4994573;28;45995;-78
2022/09/03 12:01:01;;;;;;;;;4.00;1.33;;;;;37.76;30.14;36823.38;4988826;28;46032;-74
2022/09/03 12:03:37;;;;;;;;;0.67;0.67;;;;;37.73;30.21;39124.41;4990421;28;45422;-75